createdAt,value
2023-05-07T00:11:51.915Z,100
2023-05-07T00:17:51.963Z,100
2023-05-07T00:23:51.904Z,100
2023-05-07T00:29:51.925Z,100
2023-05-07T00:35:51.933Z,100
2023-05-07T00:41:51.911Z,100
2023-05-07T00:47:52.006Z,100
2023-05-07T00:53:51.928Z,100
2023-05-07T00:59:51.921Z,100
2023-05-07T01:05:51.934Z,100
2023-05-07T01:11:51.925Z,100
2023-05-07T01:17:51.954Z,100
2023-05-07T01:23:51.930Z,100
2023-05-07T01:29:51.921Z,100
2023-05-07T01:35:51.912Z,100
2023-05-07T01:41:51.923Z,100
2023-05-07T01:47:52.358Z,100
2023-05-07T01:53:51.964Z,100
2023-05-07T01:59:51.938Z,100
2023-05-07T02:05:51.923Z,100
2023-05-07T02:11:51.932Z,100
2023-05-07T02:17:52.000Z,100
2023-05-07T02:23:51.922Z,100
2023-05-07T02:29:51.924Z,100
2023-05-07T02:35:51.917Z,100
2023-05-07T02:41:51.936Z,100
2023-05-07T02:47:51.952Z,100
2023-05-07T02:53:51.917Z,100
2023-05-07T02:59:51.909Z,100
2023-05-07T03:05:51.916Z,100
2023-05-07T03:11:51.962Z,100
2023-05-07T03:17:51.982Z,100
2023-05-07T03:23:51.937Z,100
2023-05-07T03:29:51.930Z,100
2023-05-07T03:35:51.937Z,100
2023-05-07T03:41:51.937Z,100
2023-05-07T03:47:51.935Z,100
2023-05-07T03:53:52.002Z,100
2023-05-07T03:59:51.915Z,100
2023-05-07T04:11:51.954Z,100
2023-05-07T04:17:52.018Z,100
2023-05-07T04:29:51.951Z,100
2023-05-07T04:35:51.960Z,100
2023-05-07T04:41:51.954Z,100
2023-05-07T04:47:51.953Z,100
2023-05-07T04:53:51.950Z,100
2023-05-07T04:59:51.927Z,100
2023-05-07T05:05:51.960Z,100
2023-05-07T05:11:51.951Z,100
2023-05-07T05:17:51.989Z,100
2023-05-07T05:23:51.936Z,100
2023-05-07T05:29:51.934Z,100
2023-05-07T05:41:51.913Z,100
2023-05-07T05:47:52.055Z,100
2023-05-07T05:53:51.932Z,100
2023-05-07T05:59:51.945Z,100
2023-05-07T06:05:52.012Z,100
2023-05-07T06:11:51.959Z,100
2023-05-07T06:17:52.003Z,100
2023-05-07T06:23:51.954Z,100
2023-05-07T06:29:51.942Z,100
2023-05-07T06:35:51.972Z,100
2023-05-07T06:41:51.948Z,100
2023-05-07T06:47:52.021Z,100
2023-05-07T06:53:51.946Z,100
2023-05-07T06:59:51.958Z,100
2023-05-07T07:05:51.958Z,100
2023-05-07T07:11:51.948Z,100
2023-05-07T07:17:51.975Z,100
2023-05-07T07:23:52.001Z,94.6
2023-05-07T07:29:51.941Z,92
2023-05-07T07:35:51.933Z,85.9
2023-05-07T07:41:51.936Z,88.9
2023-05-07T07:47:51.970Z,84.1
2023-05-07T07:53:51.951Z,84.2
2023-05-07T07:59:51.971Z,87.7
2023-05-07T08:05:51.955Z,91.1
2023-05-07T08:11:51.963Z,90.9
2023-05-07T08:17:51.963Z,91.8
2023-05-07T08:29:51.962Z,87.2
2023-05-07T08:35:51.950Z,82.3
2023-05-07T08:41:51.979Z,80.8
2023-05-07T08:47:52.044Z,80.2
2023-05-07T08:53:51.965Z,74.8
2023-05-07T08:59:51.948Z,74
2023-05-07T09:05:51.985Z,65.3
2023-05-07T09:11:51.951Z,58.4
2023-05-07T09:17:52.002Z,54.2
2023-05-07T09:23:51.964Z,44.8
2023-05-07T09:29:51.969Z,50.6
2023-05-07T09:35:51.991Z,54.1
2023-05-07T09:41:51.997Z,52.7
2023-05-07T09:47:52.056Z,54.5
2023-05-07T09:53:52.003Z,53.2
2023-05-07T09:59:52.005Z,55.2
2023-05-07T10:05:52.016Z,53.5
2023-05-07T10:11:51.974Z,53.8
2023-05-07T10:17:52.041Z,54.8
2023-05-07T10:23:51.997Z,50.1
2023-05-07T10:29:51.982Z,46.6
2023-05-07T10:41:52.001Z,45.5
2023-05-07T10:47:52.052Z,51.6
2023-05-07T10:53:51.984Z,46.8
2023-05-07T10:59:52.004Z,44.9
2023-05-07T11:05:51.996Z,44.8
2023-05-07T11:11:52.008Z,45.5
2023-05-07T11:17:52.076Z,46.2
2023-05-07T11:23:52.018Z,50.7
2023-05-07T11:29:52.022Z,44.7
2023-05-07T11:35:52.021Z,41.5
2023-05-07T11:41:53.600Z,46.2
2023-05-07T11:47:52.068Z,41.7
2023-05-07T11:53:52.104Z,43.8
2023-05-07T11:59:52.005Z,45.7
2023-05-07T12:11:52.034Z,47.7
2023-05-07T12:17:52.071Z,48.2
2023-05-07T12:23:52.067Z,49
2023-05-07T12:29:52.040Z,51
2023-05-07T12:35:52.043Z,52.5
2023-05-07T12:41:52.052Z,49
2023-05-07T12:47:52.091Z,59
2023-05-07T12:53:52.035Z,62.2
2023-05-07T12:59:52.065Z,69.4
2023-05-07T13:05:52.066Z,69.1
2023-05-07T13:11:52.050Z,71.5
2023-05-07T13:17:52.146Z,82.8
2023-05-07T13:23:52.074Z,83.8
2023-05-07T13:29:52.052Z,79.4
2023-05-07T13:35:52.036Z,76.3
2023-05-07T13:41:52.072Z,72.5
2023-05-07T13:47:52.083Z,63.3
2023-05-07T13:53:52.086Z,66.2
2023-05-07T13:59:52.076Z,60.4
2023-05-07T14:05:52.046Z,58.8
2023-05-07T14:11:52.084Z,60.5
2023-05-07T14:17:52.063Z,55.7
2023-05-07T14:23:52.064Z,54.1
2023-05-07T14:29:52.077Z,56.2
2023-05-07T14:35:52.050Z,58.5
2023-05-07T14:41:52.057Z,58.6
2023-05-07T14:47:52.091Z,64
2023-05-07T14:53:52.074Z,60.9
2023-05-07T14:59:52.155Z,60.2
2023-05-07T15:05:52.073Z,69
2023-05-07T15:11:52.075Z,73
2023-05-07T15:17:52.205Z,74.3
2023-05-07T15:23:52.093Z,74.4
2023-05-07T15:29:52.080Z,74.8
2023-05-07T15:35:52.066Z,77.5
2023-05-07T15:41:52.078Z,81
2023-05-07T15:47:52.139Z,81.9
2023-05-07T15:53:52.162Z,86.7
2023-05-07T15:59:52.100Z,92.8
2023-05-07T16:11:52.085Z,100
2023-05-07T16:17:52.142Z,100
2023-05-07T16:23:52.082Z,100
2023-05-07T16:29:52.086Z,100
2023-05-07T16:35:52.078Z,100
2023-05-07T16:41:52.064Z,100
2023-05-07T16:47:52.103Z,100
2023-05-07T16:53:52.496Z,100
2023-05-07T16:59:52.079Z,100
2023-05-07T17:05:52.112Z,100
2023-05-07T17:11:52.103Z,100
2023-05-07T17:17:52.161Z,100
2023-05-07T17:23:52.099Z,100
2023-05-07T17:29:52.104Z,100
2023-05-07T17:35:52.081Z,100
2023-05-07T17:41:52.108Z,100
2023-05-07T17:47:52.156Z,100
2023-05-07T17:53:52.105Z,100
2023-05-07T17:59:52.139Z,100
2023-05-07T18:11:52.106Z,100
2023-05-07T18:17:52.141Z,100
2023-05-07T18:23:52.138Z,100
2023-05-07T18:29:52.115Z,100
2023-05-07T18:35:52.103Z,100
2023-05-07T18:41:52.088Z,100
2023-05-07T18:47:52.139Z,100
2023-05-07T18:53:52.142Z,100
2023-05-07T18:59:52.096Z,100
2023-05-07T19:11:52.112Z,100
2023-05-07T19:17:52.193Z,100
2023-05-07T19:23:52.207Z,100
2023-05-07T19:29:52.169Z,100
2023-05-07T19:35:52.088Z,100
2023-05-07T19:41:52.129Z,100
2023-05-07T19:47:52.139Z,100
2023-05-07T19:53:52.117Z,100
2023-05-07T19:59:52.084Z,100
2023-05-07T20:05:52.150Z,100
2023-05-07T20:11:52.143Z,100
2023-05-07T20:17:52.106Z,100
2023-05-07T20:23:52.123Z,100
2023-05-07T20:29:52.121Z,100
2023-05-07T20:35:52.144Z,100
2023-05-07T20:41:52.136Z,100
2023-05-07T20:47:52.183Z,100
2023-05-07T20:53:52.142Z,100
2023-05-07T20:59:52.148Z,100
2023-05-07T21:11:52.103Z,100
2023-05-07T21:17:52.135Z,100
2023-05-07T21:23:52.157Z,100
2023-05-07T21:29:52.113Z,100
2023-05-07T21:35:52.128Z,100
2023-05-07T21:41:52.126Z,100
2023-05-07T21:47:52.189Z,100
2023-05-07T21:53:52.138Z,100
2023-05-07T21:59:52.146Z,100
2023-05-07T22:05:52.147Z,100
2023-05-07T22:11:52.174Z,100
2023-05-07T22:17:52.190Z,100
2023-05-07T22:23:52.130Z,100
2023-05-07T22:29:52.142Z,100
2023-05-07T22:35:52.129Z,100
2023-05-07T22:41:52.146Z,100
2023-05-07T22:47:52.157Z,100
2023-05-07T22:53:52.114Z,100
2023-05-07T23:00:02.411Z,100
2023-05-07T23:05:52.127Z,100
2023-05-07T23:11:52.133Z,100
2023-05-07T23:17:52.221Z,100
2023-05-07T23:23:52.138Z,100
2023-05-07T23:29:52.154Z,100
2023-05-07T23:35:52.126Z,100
2023-05-07T23:41:52.151Z,100
2023-05-07T23:47:52.144Z,100
2023-05-07T23:53:52.226Z,100
2023-05-07T23:59:52.134Z,100
